createdAt,value
2018-01-15T07:23:41.164Z,37.8
2018-01-15T07:31:27.461Z,38.7
2018-01-15T07:41:26.907Z,33.0
2018-01-15T07:51:27.908Z,34.4
2018-01-15T08:01:26.006Z,40.1
2018-01-15T08:11:26.959Z,31.4
2018-01-15T08:21:28.998Z,35.0
2018-01-15T08:31:26.414Z,45.9
2018-01-15T08:41:28.207Z,46.4
2018-01-15T08:51:34.662Z,43.7
2018-01-15T09:01:26.798Z,41.9
2018-01-15T09:11:28.129Z,37.9
2018-01-15T09:21:29.077Z,39.7
2018-01-15T09:31:26.846Z,41.5
2018-01-15T09:41:25.947Z,36.7
2018-01-15T09:51:31.148Z,40.4
2018-01-15T10:01:29.810Z,60.5
2018-01-15T10:11:26.961Z,42.7
2018-01-15T10:21:27.709Z,47.8
2018-01-15T10:31:26.790Z,54.4
2018-01-15T10:41:31.409Z,52.6
2018-01-15T10:51:26.552Z,58.8
2018-01-15T11:01:29.082Z,55.1
2018-01-15T11:11:31.696Z,58.2
2018-01-15T11:21:26.343Z,53.4
2018-01-15T11:31:26.479Z,55.1
2018-01-15T11:41:29.857Z,61.0
2018-01-15T11:51:26.393Z,57.0
2018-01-15T12:01:27.104Z,51.9
2018-01-15T12:11:31.996Z,58.8
2018-01-15T12:21:27.796Z,50.3
2018-01-15T12:31:27.494Z,56.4
2018-01-15T12:41:28.333Z,56.3
2018-01-15T12:51:26.385Z,52.5
2018-01-15T13:01:26.809Z,62.9
2018-01-15T13:11:28.934Z,56.9
2018-01-15T13:21:31.791Z,64.1
2018-01-15T13:31:29.949Z,61.3
2018-01-15T13:41:27.040Z,71.1
2018-01-15T13:51:29.184Z,65.4
2018-01-15T14:01:31.824Z,71.7
2018-01-15T14:11:27.396Z,83.6
2018-01-15T14:21:29.220Z,60.1
2018-01-15T14:31:26.904Z,77.5
2018-01-15T14:41:27.456Z,74.3
2018-01-15T14:51:26.890Z,76.0
2018-01-15T15:01:26.668Z,84.1
2018-01-15T15:11:28.256Z,67.6
2018-01-15T15:21:26.936Z,72.2
2018-01-15T15:31:27.696Z,77.0
2018-01-15T15:41:28.283Z,70.0
2018-01-15T15:51:26.567Z,87.8
2018-01-15T16:01:29.242Z,75.3
2018-01-15T16:11:26.276Z,98.8
2018-01-15T16:21:27.519Z,108.4
2018-01-15T16:31:26.819Z,104.2
2018-01-15T16:41:25.878Z,93.3
2018-01-15T16:51:26.355Z,95.9
2018-01-15T17:01:26.978Z,87.6
2018-01-15T17:11:28.108Z,89.6
2018-01-15T17:21:27.608Z,95.4
2018-01-15T17:31:29.984Z,103.9
2018-01-15T17:41:26.607Z,93.0
2018-01-15T17:51:28.157Z,104.9
2018-01-15T18:01:29.266Z,116.3
2018-01-15T18:11:28.657Z,114.7
2018-01-15T18:21:29.141Z,106.5
2018-01-15T18:31:26.574Z,118.8
2018-01-15T18:41:27.343Z,118.0
2018-01-15T18:51:27.905Z,117.1
2018-01-15T19:01:28.268Z,138.9
2018-01-15T19:11:27.436Z,141.0
2018-01-15T19:21:26.705Z,155.6
2018-01-15T19:31:26.740Z,157.8
2018-01-15T19:41:27.149Z,157.3
2018-01-15T19:51:26.728Z,151.2
2018-01-15T20:01:31.282Z,148.3
2018-01-15T20:11:26.357Z,167.7
2018-01-15T20:21:30.398Z,165.3
2018-01-15T20:31:26.737Z,150.4
2018-01-15T20:41:26.783Z,156.4
2018-01-15T20:51:27.487Z,161.3
2018-01-15T21:01:26.611Z,161.4
2018-01-15T21:11:33.897Z,150.1
2018-01-15T21:21:26.529Z,133.4
2018-01-15T21:31:32.147Z,142.6
2018-01-15T21:41:32.545Z,151.1
2018-01-15T21:51:27.254Z,185.8
2018-01-15T22:01:32.151Z,185.2
2018-01-15T22:11:27.320Z,153.5
2018-01-15T22:21:28.271Z,160.1
2018-01-15T22:31:27.879Z,163.8
2018-01-15T22:41:27.016Z,149.1
2018-01-15T22:51:26.877Z,130.6
2018-01-15T23:01:25.997Z,157.8
2018-01-15T23:11:27.335Z,131.5
2018-01-15T23:21:28.156Z,116.7
2018-01-15T23:31:26.873Z,130.2
2018-01-15T23:41:27.445Z,138.3
2018-01-15T23:51:26.450Z,131.3
